sensor_id;sensor_type;location;lat;lon;timestamp;pressure;altitude;pressure_sealevel;temperature;humidity
9277;BME280;4676;42.678;23.244;2023-08-06T00:00:13;92983.34;;;19.57;100.00
9277;BME280;4676;42.678;23.244;2023-08-06T00:02:39;92998.13;;;19.55;100.00
9277;BME280;4676;42.678;23.244;2023-08-06T00:05:08;93035.72;;;19.56;100.00
9277;BME280;4676;42.678;23.244;2023-08-06T00:07:34;93041.78;;;19.64;100.00
9277;BME280;4676;42.678;23.244;2023-08-06T00:10:01;93033.06;;;19.75;100.00
9277;BME280;4676;42.678;23.244;2023-08-06T00:12:28;93041.59;;;19.75;100.00
9277;BME280;4676;42.678;23.244;2023-08-06T00:14:55;93045.78;;;19.76;100.00
9277;BME280;4676;42.678;23.244;2023-08-06T00:17:21;93029.59;;;19.66;100.00
9277;BME280;4676;42.678;23.244;2023-08-06T00:19:48;93020.25;;;19.65;100.00
9277;BME280;4676;42.678;23.244;2023-08-06T00:22:16;93037.56;;;19.73;100.00
9277;BME280;4676;42.678;23.244;2023-08-06T00:24:43;93037.84;;;19.70;100.00
9277;BME280;4676;42.678;23.244;2023-08-06T00:27:09;93033.47;;;19.80;100.00
9277;BME280;4676;42.678;23.244;2023-08-06T00:29:36;93028.28;;;19.89;100.00
9277;BME280;4676;42.678;23.244;2023-08-06T00:32:03;93022.19;;;19.90;100.00
9277;BME280;4676;42.678;23.244;2023-08-06T00:34:30;93012.31;;;19.86;100.00
9277;BME280;4676;42.678;23.244;2023-08-06T00:36:56;92989.53;;;19.73;100.00
9277;BME280;4676;42.678;23.244;2023-08-06T00:39:25;93002.69;;;19.88;100.00
9277;BME280;4676;42.678;23.244;2023-08-06T00:41:51;93011.50;;;19.85;100.00
9277;BME280;4676;42.678;23.244;2023-08-06T00:44:18;93019.38;;;19.84;100.00
9277;BME280;4676;42.678;23.244;2023-08-06T00:46:45;93009.88;;;19.84;100.00
9277;BME280;4676;42.678;23.244;2023-08-06T00:49:12;93004.13;;;19.73;100.00
9277;BME280;4676;42.678;23.244;2023-08-06T00:51:39;92993.91;;;19.63;100.00
9277;BME280;4676;42.678;23.244;2023-08-06T00:54:05;92999.53;;;19.67;100.00
9277;BME280;4676;42.678;23.244;2023-08-06T00:56:34;93009.59;;;19.60;100.00
9277;BME280;4676;42.678;23.244;2023-08-06T00:59:02;93004.66;;;19.49;100.00
9277;BME280;4676;42.678;23.244;2023-08-06T01:01:29;93005.19;;;19.43;100.00
9277;BME280;4676;42.678;23.244;2023-08-06T01:03:56;92997.22;;;19.27;100.00
9277;BME280;4676;42.678;23.244;2023-08-06T01:06:32;92984.44;;;19.17;100.00
9277;BME280;4676;42.678;23.244;2023-08-06T01:09:06;92963.72;;;19.19;100.00
9277;BME280;4676;42.678;23.244;2023-08-06T01:11:44;92948.72;;;19.14;100.00
9277;BME280;4676;42.678;23.244;2023-08-06T01:14:20;92956.63;;;19.03;100.00
9277;BME280;4676;42.678;23.244;2023-08-06T01:16:50;92975.09;;;19.16;100.00
9277;BME280;4676;42.678;23.244;2023-08-06T01:19:17;92972.91;;;19.21;100.00
9277;BME280;4676;42.678;23.244;2023-08-06T01:21:46;92972.66;;;19.15;100.00
9277;BME280;4676;42.678;23.244;2023-08-06T01:24:12;92966.69;;;19.14;100.00
9277;BME280;4676;42.678;23.244;2023-08-06T01:26:43;92977.25;;;19.21;100.00
9277;BME280;4676;42.678;23.244;2023-08-06T01:29:17;92976.84;;;19.16;100.00
9277;BME280;4676;42.678;23.244;2023-08-06T01:31:48;92964.94;;;19.15;100.00
9277;BME280;4676;42.678;23.244;2023-08-06T01:34:17;92943.94;;;18.92;100.00
9277;BME280;4676;42.678;23.244;2023-08-06T01:36:48;92950.75;;;19.11;100.00
9277;BME280;4676;42.678;23.244;2023-08-06T01:39:16;92948.09;;;19.03;100.00
9277;BME280;4676;42.678;23.244;2023-08-06T01:41:46;92952.97;;;18.96;100.00
9277;BME280;4676;42.678;23.244;2023-08-06T01:44:13;92943.50;;;18.96;100.00
9277;BME280;4676;42.678;23.244;2023-08-06T01:46:40;92949.03;;;19.02;100.00
9277;BME280;4676;42.678;23.244;2023-08-06T01:49:06;92948.91;;;18.93;100.00
9277;BME280;4676;42.678;23.244;2023-08-06T01:51:33;92960.50;;;19.07;100.00
9277;BME280;4676;42.678;23.244;2023-08-06T01:54:01;92968.88;;;19.09;100.00
9277;BME280;4676;42.678;23.244;2023-08-06T01:56:28;92959.28;;;19.11;100.00
9277;BME280;4676;42.678;23.244;2023-08-06T01:58:55;92943.78;;;19.03;100.00
9277;BME280;4676;42.678;23.244;2023-08-06T02:01:22;92931.19;;;19.00;100.00
9277;BME280;4676;42.678;23.244;2023-08-06T02:03:48;92937.13;;;19.01;100.00
9277;BME280;4676;42.678;23.244;2023-08-06T02:06:15;92928.47;;;19.11;100.00
9277;BME280;4676;42.678;23.244;2023-08-06T02:08:42;92933.06;;;19.08;100.00
9277;BME280;4676;42.678;23.244;2023-08-06T02:11:10;92933.06;;;19.08;100.00
9277;BME280;4676;42.678;23.244;2023-08-06T02:13:36;92931.19;;;19.00;100.00
9277;BME280;4676;42.678;23.244;2023-08-06T02:16:03;92939.72;;;19.01;100.00
9277;BME280;4676;42.678;23.244;2023-08-06T02:18:30;92949.00;;;19.11;100.00
9277;BME280;4676;42.678;23.244;2023-08-06T02:20:58;92959.41;;;19.19;100.00
9277;BME280;4676;42.678;23.244;2023-08-06T02:23:25;92974.16;;;19.17;100.00
9277;BME280;4676;42.678;23.244;2023-08-06T02:25:59;92972.13;;;19.21;100.00
9277;BME280;4676;42.678;23.244;2023-08-06T02:28:28;92953.97;;;19.22;100.00
9277;BME280;4676;42.678;23.244;2023-08-06T02:30:55;92923.31;;;19.11;100.00
9277;BME280;4676;42.678;23.244;2023-08-06T02:33:22;92923.59;;;19.08;100.00
9277;BME280;4676;42.678;23.244;2023-08-06T02:35:48;92941.63;;;18.99;100.00
9277;BME280;4676;42.678;23.244;2023-08-06T02:38:15;92958.47;;;19.11;100.00
9277;BME280;4676;42.678;23.244;2023-08-06T02:40:45;92979.44;;;19.06;100.00
9277;BME280;4676;42.678;23.244;2023-08-06T02:43:12;92975.38;;;19.04;100.00
9277;BME280;4676;42.678;23.244;2023-08-06T02:45:40;92976.88;;;18.96;100.00
9277;BME280;4676;42.678;23.244;2023-08-06T02:48:07;92961.22;;;19.00;100.00
9277;BME280;4676;42.678;23.244;2023-08-06T02:50:37;92951.75;;;18.90;100.00
9277;BME280;4676;42.678;23.244;2023-08-06T02:53:04;92945.13;;;18.98;100.00
9277;BME280;4676;42.678;23.244;2023-08-06T02:55:31;92921.72;;;19.01;100.00
9277;BME280;4676;42.678;23.244;2023-08-06T02:57:59;92922.97;;;18.96;100.00
9277;BME280;4676;42.678;23.244;2023-08-06T03:00:26;92935.13;;;18.94;100.00
9277;BME280;4676;42.678;23.244;2023-08-06T03:02:54;92927.03;;;18.89;100.00
9277;BME280;4676;42.678;23.244;2023-08-06T03:05:20;92887.75;;;18.79;100.00
9277;BME280;4676;42.678;23.244;2023-08-06T03:07:47;92866.22;;;19.00;100.00
9277;BME280;4676;42.678;23.244;2023-08-06T03:10:14;92905.41;;;18.92;100.00
9277;BME280;4676;42.678;23.244;2023-08-06T03:12:41;92943.91;;;19.02;100.00
9277;BME280;4676;42.678;23.244;2023-08-06T03:15:08;92938.59;;;19.13;100.00
9277;BME280;4676;42.678;23.244;2023-08-06T03:17:35;92908.59;;;19.13;100.00
9277;BME280;4676;42.678;23.244;2023-08-06T03:20:04;92870.25;;;19.02;100.00
9277;BME280;4676;42.678;23.244;2023-08-06T03:22:31;92909.13;;;19.07;100.00
9277;BME280;4676;42.678;23.244;2023-08-06T03:24:58;92937.50;;;19.15;100.00
9277;BME280;4676;42.678;23.244;2023-08-06T03:27:25;92922.22;;;19.23;100.00
9277;BME280;4676;42.678;23.244;2023-08-06T03:29:51;92909.38;;;19.23;100.00
9277;BME280;4676;42.678;23.244;2023-08-06T03:32:18;92935.06;;;19.23;100.00
9277;BME280;4676;42.678;23.244;2023-08-06T03:34:45;92941.00;;;19.24;100.00
9277;BME280;4676;42.678;23.244;2023-08-06T03:37:13;92948.72;;;19.14;100.00
9277;BME280;4676;42.678;23.244;2023-08-06T03:39:40;92948.09;;;19.03;100.00
9277;BME280;4676;42.678;23.244;2023-08-06T03:42:06;92954.56;;;18.97;100.00
9277;BME280;4676;42.678;23.244;2023-08-06T03:44:33;92953.09;;;18.94;100.00
9277;BME280;4676;42.678;23.244;2023-08-06T03:47:00;92950.56;;;18.85;100.00
9277;BME280;4676;42.678;23.244;2023-08-06T03:49:27;92955.53;;;18.86;100.00
9277;BME280;4676;42.678;23.244;2023-08-06T03:51:53;92973.25;;;18.89;100.00
9277;BME280;4676;42.678;23.244;2023-08-06T03:54:21;92971.63;;;18.88;100.00
9277;BME280;4676;42.678;23.244;2023-08-06T03:56:48;92963.63;;;19.01;100.00
9277;BME280;4676;42.678;23.244;2023-08-06T03:59:15;92958.91;;;19.06;100.00
9277;BME280;4676;42.678;23.244;2023-08-06T04:01:41;92970.53;;;19.01;100.00
9277;BME280;4676;42.678;23.244;2023-08-06T04:04:08;92967.66;;;19.13;100.00
9277;BME280;4676;42.678;23.244;2023-08-06T04:06:35;92978.03;;;19.21;100.00
9277;BME280;4676;42.678;23.244;2023-08-06T04:09:01;92979.66;;;19.22;100.00
9277;BME280;4676;42.678;23.244;2023-08-06T04:11:29;92978.59;;;19.15;100.00
9277;BME280;4676;42.678;23.244;2023-08-06T04:13:56;92986.84;;;19.19;100.00
9277;BME280;4676;42.678;23.244;2023-08-06T04:16:23;92989.66;;;19.25;100.00
9277;BME280;4676;42.678;23.244;2023-08-06T04:18:51;92985.63;;;19.23;100.00
9277;BME280;4676;42.678;23.244;2023-08-06T04:21:18;92987.09;;;19.25;100.00
9277;BME280;4676;42.678;23.244;2023-08-06T04:23:45;92982.19;;;19.32;100.00
9277;BME280;4676;42.678;23.244;2023-08-06T04:26:12;92976.94;;;19.33;100.00
9277;BME280;4676;42.678;23.244;2023-08-06T04:28:40;92974.13;;;19.27;100.00
9277;BME280;4676;42.678;23.244;2023-08-06T04:31:07;92964.25;;;19.22;100.00
9277;BME280;4676;42.678;23.244;2023-08-06T04:33:34;92966.41;;;19.27;100.00
9277;BME280;4676;42.678;23.244;2023-08-06T04:36:00;92962.16;;;19.35;100.00
9277;BME280;4676;42.678;23.244;2023-08-06T04:38:27;92970.69;;;19.36;100.00
9277;BME280;4676;42.678;23.244;2023-08-06T04:40:54;92967.34;;;19.26;100.00
9277;BME280;4676;42.678;23.244;2023-08-06T04:43:20;92947.78;;;19.15;100.00
9277;BME280;4676;42.678;23.244;2023-08-06T04:45:49;92939.94;;;19.17;100.00
9277;BME280;4676;42.678;23.244;2023-08-06T04:48:16;92938.31;;;19.16;100.00
9277;BME280;4676;42.678;23.244;2023-08-06T04:50:44;92927.00;;;19.09;100.00
9277;BME280;4676;42.678;23.244;2023-08-06T04:53:10;92917.56;;;19.00;100.00
9277;BME280;4676;42.678;23.244;2023-08-06T04:55:37;92922.13;;;19.06;100.00
9277;BME280;4676;42.678;23.244;2023-08-06T04:58:04;92912.56;;;18.98;100.00
9277;BME280;4676;42.678;23.244;2023-08-06T05:00:31;92903.78;;;18.91;100.00
9277;BME280;4676;42.678;23.244;2023-08-06T05:03:00;92902.44;;;18.87;100.00
9277;BME280;4676;42.678;23.244;2023-08-06T05:05:27;92906.25;;;18.83;100.00
9277;BME280;4676;42.678;23.244;2023-08-06T05:07:55;92915.97;;;18.79;100.00
9277;BME280;4676;42.678;23.244;2023-08-06T05:10:23;92921.75;;;18.91;100.00
9277;BME280;4676;42.678;23.244;2023-08-06T05:12:50;92920.13;;;19.00;100.00
9277;BME280;4676;42.678;23.244;2023-08-06T05:15:17;92920.22;;;19.08;100.00
9277;BME280;4676;42.678;23.244;2023-08-06T05:17:44;92918.59;;;19.16;100.00
9277;BME280;4676;42.678;23.244;2023-08-06T05:20:13;92921.50;;;19.31;100.00
9277;BME280;4676;42.678;23.244;2023-08-06T05:22:40;92928.25;;;19.41;100.00
9277;BME280;4676;42.678;23.244;2023-08-06T05:25:07;92933.72;;;19.56;100.00
9277;BME280;4676;42.678;23.244;2023-08-06T05:27:34;92935.97;;;19.69;100.00
9277;BME280;4676;42.678;23.244;2023-08-06T05:30:00;92922.97;;;19.88;100.00
9277;BME280;4676;42.678;23.244;2023-08-06T05:32:27;92920.41;;;20.06;100.00
9277;BME280;4676;42.678;23.244;2023-08-06T05:34:54;92911.38;;;20.29;100.00
9277;BME280;4676;42.678;23.244;2023-08-06T05:37:22;92916.94;;;20.42;100.00
9277;BME280;4676;42.678;23.244;2023-08-06T05:39:49;92912.09;;;20.39;100.00
9277;BME280;4676;42.678;23.244;2023-08-06T05:42:15;92912.38;;;20.36;100.00
9277;BME280;4676;42.678;23.244;2023-08-06T05:44:42;92906.19;;;20.47;100.00
9277;BME280;4676;42.678;23.244;2023-08-06T05:47:09;92918.03;;;20.57;100.00
9277;BME280;4676;42.678;23.244;2023-08-06T05:49:36;92907.28;;;20.62;100.00
9277;BME280;4676;42.678;23.244;2023-08-06T05:52:03;92911.88;;;20.76;100.00
9277;BME280;4676;42.678;23.244;2023-08-06T05:54:32;92914.31;;;20.77;100.00
9277;BME280;4676;42.678;23.244;2023-08-06T05:56:59;92903.75;;;20.88;100.00
9277;BME280;4676;42.678;23.244;2023-08-06T05:59:26;92914.56;;;20.92;100.00
9277;BME280;4676;42.678;23.244;2023-08-06T06:01:53;92923.03;;;20.84;100.00
9277;BME280;4676;42.678;23.244;2023-08-06T06:04:21;92928.97;;;21.03;100.00
9277;BME280;4676;42.678;23.244;2023-08-06T06:06:47;92930.25;;;21.24;100.00
9277;BME280;4676;42.678;23.244;2023-08-06T06:09:14;92929.75;;;21.21;100.00
9277;BME280;4676;42.678;23.244;2023-08-06T06:11:42;92920.34;;;21.12;100.00
9277;BME280;4676;42.678;23.244;2023-08-06T06:14:09;92934.47;;;21.33;100.00
9277;BME280;4676;42.678;23.244;2023-08-06T06:16:36;92943.16;;;21.24;100.00
9277;BME280;4676;42.678;23.244;2023-08-06T06:19:02;92940.59;;;21.07;100.00
9277;BME280;4676;42.678;23.244;2023-08-06T06:21:29;92947.38;;;20.90;100.00
9277;BME280;4676;42.678;23.244;2023-08-06T06:23:56;92952.59;;;20.98;100.00
9277;BME280;4676;42.678;23.244;2023-08-06T06:26:22;92956.09;;;20.89;100.00
9277;BME280;4676;42.678;23.244;2023-08-06T06:28:50;92966.31;;;20.81;100.00
9277;BME280;4676;42.678;23.244;2023-08-06T06:31:17;92962.06;;;20.72;100.00
9277;BME280;4676;42.678;23.244;2023-08-06T06:33:44;92965.09;;;20.67;100.00
9277;BME280;4676;42.678;23.244;2023-08-06T06:36:10;92963.94;;;20.62;100.00
9277;BME280;4676;42.678;23.244;2023-08-06T06:38:37;92972.00;;;20.67;100.00
9277;BME280;4676;42.678;23.244;2023-08-06T06:41:04;92977.06;;;20.59;100.00
9277;BME280;4676;42.678;23.244;2023-08-06T06:43:32;92996.00;;;20.50;100.00
9277;BME280;4676;42.678;23.244;2023-08-06T06:46:00;92988.13;;;20.33;100.00
9277;BME280;4676;42.678;23.244;2023-08-06T06:48:28;92996.78;;;20.32;100.00
9277;BME280;4676;42.678;23.244;2023-08-06T06:50:55;92998.25;;;20.35;100.00
9277;BME280;4676;42.678;23.244;2023-08-06T06:53:22;92993.41;;;20.50;100.00
9277;BME280;4676;42.678;23.244;2023-08-06T06:55:52;92996.88;;;20.58;100.00
9277;BME280;4676;42.678;23.244;2023-08-06T06:58:19;92984.22;;;20.65;100.00
9277;BME280;4676;42.678;23.244;2023-08-06T07:00:46;92995.69;;;20.70;100.00
9277;BME280;4676;42.678;23.244;2023-08-06T07:03:14;92990.91;;;20.75;100.00
9277;BME280;4676;42.678;23.244;2023-08-06T07:05:42;93008.94;;;20.75;100.00
9277;BME280;4676;42.678;23.244;2023-08-06T07:08:09;92998.44;;;20.69;100.00
9277;BME280;4676;42.678;23.244;2023-08-06T07:10:36;93020.47;;;20.89;100.00
9277;BME280;4676;42.678;23.244;2023-08-06T07:13:03;93018.97;;;21.22;100.00
9277;BME280;4676;42.678;23.244;2023-08-06T07:15:30;93019.16;;;21.46;100.00
9277;BME280;4676;42.678;23.244;2023-08-06T07:17:56;93027.91;;;21.61;100.00
9277;BME280;4676;42.678;23.244;2023-08-06T07:20:24;93025.59;;;21.76;100.00
9277;BME280;4676;42.678;23.244;2023-08-06T07:22:51;93029.66;;;21.86;100.00
9277;BME280;4676;42.678;23.244;2023-08-06T07:25:18;93030.63;;;21.85;100.00
9277;BME280;4676;42.678;23.244;2023-08-06T07:27:44;93031.59;;;21.84;100.00
9277;BME280;4676;42.678;23.244;2023-08-06T07:30:11;93031.66;;;21.92;100.00
9277;BME280;4676;42.678;23.244;2023-08-06T07:32:38;93033.34;;;22.10;100.00
9277;BME280;4676;42.678;23.244;2023-08-06T07:35:05;93027.06;;;22.20;100.00
9277;BME280;4676;42.678;23.244;2023-08-06T07:37:34;93029.56;;;22.38;100.00
9277;BME280;4676;42.678;23.244;2023-08-06T07:40:01;93030.38;;;22.38;100.00
9277;BME280;4676;42.678;23.244;2023-08-06T07:42:29;93028.31;;;22.58;100.00
9277;BME280;4676;42.678;23.244;2023-08-06T07:44:57;93022.41;;;22.74;100.00
9277;BME280;4676;42.678;23.244;2023-08-06T07:47:24;93021.59;;;22.98;100.00
9277;BME280;4676;42.678;23.244;2023-08-06T07:49:51;93013.84;;;23.06;100.00
9277;BME280;4676;42.678;23.244;2023-08-06T07:52:18;93018.22;;;23.13;100.00
9277;BME280;4676;42.678;23.244;2023-08-06T07:54:46;93014.19;;;23.11;100.00
9277;BME280;4676;42.678;23.244;2023-08-06T07:57:13;93014.00;;;22.88;100.00
9277;BME280;4676;42.678;23.244;2023-08-06T07:59:40;93014.19;;;23.03;100.00
9277;BME280;4676;42.678;23.244;2023-08-06T08:02:07;93006.88;;;23.22;100.00
9277;BME280;4676;42.678;23.244;2023-08-06T08:04:34;93014.97;;;23.35;100.00
9277;BME280;4676;42.678;23.244;2023-08-06T08:07:00;93008.50;;;23.48;100.00
9277;BME280;4676;42.678;23.244;2023-08-06T08:09:27;93007.88;;;23.54;100.00
9277;BME280;4676;42.678;23.244;2023-08-06T08:11:56;93006.25;;;23.61;100.00
9277;BME280;4676;42.678;23.244;2023-08-06T08:14:23;93010.59;;;23.60;100.00
9277;BME280;4676;42.678;23.244;2023-08-06T08:16:50;93010.88;;;23.73;100.00
9277;BME280;4676;42.678;23.244;2023-08-06T08:19:16;93013.22;;;23.99;100.00
9277;BME280;4676;42.678;23.244;2023-08-06T08:21:43;93006.50;;;24.21;100.00
9277;BME280;4676;42.678;23.244;2023-08-06T08:24:10;93003.38;;;24.33;100.00
9277;BME280;4676;42.678;23.244;2023-08-06T08:26:36;92997.03;;;24.44;95.55
9277;BME280;4676;42.678;23.244;2023-08-06T08:29:04;93009.84;;;24.38;100.00
9277;BME280;4676;42.678;23.244;2023-08-06T08:31:31;93008.56;;;24.33;100.00
9277;BME280;4676;42.678;23.244;2023-08-06T08:34:04;93014.16;;;24.14;97.13
9277;BME280;4676;42.678;23.244;2023-08-06T08:36:30;93012.38;;;24.07;100.00
9277;BME280;4676;42.678;23.244;2023-08-06T08:38:57;93012.78;;;23.87;93.42
9277;BME280;4676;42.678;23.244;2023-08-06T08:41:24;93006.06;;;23.54;94.88
9277;BME280;4676;42.678;23.244;2023-08-06T08:43:51;93006.06;;;23.54;93.50
9277;BME280;4676;42.678;23.244;2023-08-06T08:46:19;92995.56;;;23.56;100.00
9277;BME280;4676;42.678;23.244;2023-08-06T08:48:46;92988.91;;;23.61;100.00
9277;BME280;4676;42.678;23.244;2023-08-06T08:51:13;92987.56;;;23.81;96.71
9277;BME280;4676;42.678;23.244;2023-08-06T08:53:42;92999.34;;;23.92;88.79
9277;BME280;4676;42.678;23.244;2023-08-06T08:56:12;92995.41;;;23.96;96.92
9277;BME280;4676;42.678;23.244;2023-08-06T08:58:39;92982.16;;;23.99;92.17
9277;BME280;4676;42.678;23.244;2023-08-06T09:01:07;92990.88;;;24.06;100.00
9277;BME280;4676;42.678;23.244;2023-08-06T09:03:36;92985.53;;;24.38;93.33
9277;BME280;4676;42.678;23.244;2023-08-06T09:06:03;92979.31;;;24.56;92.20
9277;BME280;4676;42.678;23.244;2023-08-06T09:08:34;92987.94;;;24.71;87.29
9277;BME280;4676;42.678;23.244;2023-08-06T09:11:04;92979.19;;;24.72;77.35
9277;BME280;4676;42.678;23.244;2023-08-06T09:13:31;92981.94;;;24.48;83.48
9277;BME280;4676;42.678;23.244;2023-08-06T09:15:58;92984.88;;;24.45;75.93
9277;BME280;4676;42.678;23.244;2023-08-06T09:18:27;92981.47;;;24.44;83.69
9277;BME280;4676;42.678;23.244;2023-08-06T09:20:57;92982.94;;;24.38;74.63
9277;BME280;4676;42.678;23.244;2023-08-06T09:23:28;92975.78;;;24.49;81.88
9277;BME280;4676;42.678;23.244;2023-08-06T09:25:56;92973.00;;;24.50;79.07
9277;BME280;4676;42.678;23.244;2023-08-06T09:28:23;92979.41;;;24.62;80.72
9277;BME280;4676;42.678;23.244;2023-08-06T09:30:50;92979.97;;;24.50;71.42
9277;BME280;4676;42.678;23.244;2023-08-06T09:33:18;92969.53;;;24.35;87.85
9277;BME280;4676;42.678;23.244;2023-08-06T09:35:46;92973.84;;;24.20;75.60
9277;BME280;4676;42.678;23.244;2023-08-06T09:38:14;92965.16;;;24.13;80.16
9277;BME280;4676;42.678;23.244;2023-08-06T09:40:41;92959.97;;;24.05;81.14
9277;BME280;4676;42.678;23.244;2023-08-06T09:43:07;92965.84;;;23.91;85.09
9277;BME280;4676;42.678;23.244;2023-08-06T09:45:35;92963.63;;;23.79;86.11
9277;BME280;4676;42.678;23.244;2023-08-06T09:48:04;92963.34;;;23.74;88.60
9277;BME280;4676;42.678;23.244;2023-08-06T09:50:32;92970.28;;;23.74;78.78
9277;BME280;4676;42.678;23.244;2023-08-06T09:53:01;92973.81;;;23.81;78.39
9277;BME280;4676;42.678;23.244;2023-08-06T09:55:29;92965.75;;;23.76;78.25
9277;BME280;4676;42.678;23.244;2023-08-06T09:57:58;92975.41;;;23.90;82.99
9277;BME280;4676;42.678;23.244;2023-08-06T10:00:25;92967.63;;;23.90;76.82
9277;BME280;4676;42.678;23.244;2023-08-06T10:02:53;92959.94;;;23.74;80.32
9277;BME280;4676;42.678;23.244;2023-08-06T10:05:22;92982.88;;;23.77;78.95
9277;BME280;4676;42.678;23.244;2023-08-06T10:07:49;92979.16;;;23.79;75.97
9277;BME280;4676;42.678;23.244;2023-08-06T10:10:16;92974.78;;;23.88;78.24
9277;BME280;4676;42.678;23.244;2023-08-06T10:12:47;92972.84;;;24.21;84.54
9277;BME280;4676;42.678;23.244;2023-08-06T10:15:17;92976.81;;;24.40;78.61
9277;BME280;4676;42.678;23.244;2023-08-06T10:17:48;92978.59;;;24.39;77.99
9277;BME280;4676;42.678;23.244;2023-08-06T10:20:18;92968.75;;;24.34;80.78
9277;BME280;4676;42.678;23.244;2023-08-06T10:22:46;92987.19;;;24.31;75.65
9277;BME280;4676;42.678;23.244;2023-08-06T10:25:26;92975.41;;;24.29;79.91
9277;BME280;4676;42.678;23.244;2023-08-06T10:27:54;92983.16;;;24.29;77.83
9277;BME280;4676;42.678;23.244;2023-08-06T10:30:24;92985.72;;;24.37;75.89
9277;BME280;4676;42.678;23.244;2023-08-06T10:32:53;92994.66;;;24.34;76.64
9277;BME280;4676;42.678;23.244;2023-08-06T10:35:36;92995.75;;;24.40;74.89
9277;BME280;4676;42.678;23.244;2023-08-06T10:38:04;92970.22;;;24.29;83.72
9277;BME280;4676;42.678;23.244;2023-08-06T10:40:31;93002.22;;;24.36;84.60
9277;BME280;4676;42.678;23.244;2023-08-06T10:43:00;92998.25;;;24.25;81.95
9277;BME280;4676;42.678;23.244;2023-08-06T10:45:27;93004.53;;;24.31;81.43
9277;BME280;4676;42.678;23.244;2023-08-06T10:47:56;93006.00;;;24.25;81.21
9277;BME280;4676;42.678;23.244;2023-08-06T10:50:23;93020.94;;;24.15;80.98
9277;BME280;4676;42.678;23.244;2023-08-06T10:52:50;93009.63;;;24.08;84.61
9277;BME280;4676;42.678;23.244;2023-08-06T10:55:28;93016.41;;;24.17;85.79
9277;BME280;4676;42.678;23.244;2023-08-06T10:57:55;93015.09;;;24.21;82.15
9277;BME280;4676;42.678;23.244;2023-08-06T11:00:23;93021.53;;;24.33;81.36
9277;BME280;4676;42.678;23.244;2023-08-06T11:02:51;93023.50;;;24.23;81.91
9277;BME280;4676;42.678;23.244;2023-08-06T11:05:18;93023.19;;;24.18;83.31
9277;BME280;4676;42.678;23.244;2023-08-06T11:07:45;93031.16;;;24.01;83.58
9277;BME280;4676;42.678;23.244;2023-08-06T11:10:13;93038.50;;;23.81;84.66
9277;BME280;4676;42.678;23.244;2023-08-06T11:12:40;93034.84;;;23.51;82.76
9277;BME280;4676;42.678;23.244;2023-08-06T11:15:08;93041.31;;;23.23;100.00
9277;BME280;4676;42.678;23.244;2023-08-06T11:17:36;93040.84;;;23.03;100.00
9277;BME280;4676;42.678;23.244;2023-08-06T11:20:04;93023.69;;;22.78;100.00
9277;BME280;4676;42.678;23.244;2023-08-06T11:22:32;93035.00;;;22.69;100.00
9277;BME280;4676;42.678;23.244;2023-08-06T11:24:59;93031.06;;;22.57;100.00
9277;BME280;4676;42.678;23.244;2023-08-06T11:27:27;93032.34;;;22.45;100.00
9277;BME280;4676;42.678;23.244;2023-08-06T11:29:54;93029.56;;;22.38;100.00
9277;BME280;4676;42.678;23.244;2023-08-06T11:32:21;93021.03;;;22.37;100.00
9277;BME280;4676;42.678;23.244;2023-08-06T11:34:49;93023.59;;;22.37;100.00
9277;BME280;4676;42.678;23.244;2023-08-06T11:37:16;93023.13;;;22.50;100.00
9277;BME280;4676;42.678;23.244;2023-08-06T11:39:47;93019.91;;;22.48;100.00
9277;BME280;4676;42.678;23.244;2023-08-06T11:42:14;93023.81;;;22.60;100.00
9277;BME280;4676;42.678;23.244;2023-08-06T11:44:41;93018.69;;;22.68;100.00
9277;BME280;4676;42.678;23.244;2023-08-06T11:47:13;93016.44;;;22.81;100.00
9277;BME280;4676;42.678;23.244;2023-08-06T11:49:42;93011.59;;;22.95;100.00
9277;BME280;4676;42.678;23.244;2023-08-06T11:52:14;93008.69;;;23.14;100.00
9277;BME280;4676;42.678;23.244;2023-08-06T11:54:44;92975.09;;;23.14;100.00
9277;BME280;4676;42.678;23.244;2023-08-06T11:57:11;92998.16;;;23.48;100.00
9277;BME280;4676;42.678;23.244;2023-08-06T11:59:38;93013.16;;;23.68;95.99
9277;BME280;4676;42.678;23.244;2023-08-06T12:02:08;93003.44;;;23.78;88.48
9277;BME280;4676;42.678;23.244;2023-08-06T12:05:03;93005.31;;;23.93;95.35
9277;BME280;4676;42.678;23.244;2023-08-06T12:07:33;93001.38;;;24.13;94.73
9277;BME280;4676;42.678;23.244;2023-08-06T12:10:03;93007.28;;;24.29;86.04
9277;BME280;4676;42.678;23.244;2023-08-06T12:12:30;92990.47;;;24.25;89.67
9277;BME280;4676;42.678;23.244;2023-08-06T12:14:57;92995.72;;;24.48;87.34
9277;BME280;4676;42.678;23.244;2023-08-06T12:17:24;92991.56;;;24.62;90.96
9277;BME280;4676;42.678;23.244;2023-08-06T12:19:51;92995.00;;;24.54;84.81
9277;BME280;4676;42.678;23.244;2023-08-06T12:22:18;93002.13;;;24.29;83.92
9277;BME280;4676;42.678;23.244;2023-08-06T12:24:47;93003.59;;;24.24;93.93
9277;BME280;4676;42.678;23.244;2023-08-06T12:27:14;92994.22;;;24.23;84.01
9277;BME280;4676;42.678;23.244;2023-08-06T12:29:42;92996.47;;;24.26;86.68
9277;BME280;4676;42.678;23.244;2023-08-06T12:32:09;92994.00;;;24.32;81.79
9277;BME280;4676;42.678;23.244;2023-08-06T12:34:37;92995.84;;;24.24;82.93
9277;BME280;4676;42.678;23.244;2023-08-06T12:37:03;93008.47;;;24.19;91.30
9277;BME280;4676;42.678;23.244;2023-08-06T12:39:30;93000.69;;;24.11;94.52
9277;BME280;4676;42.678;23.244;2023-08-06T12:41:59;93007.66;;;24.10;82.78
9277;BME280;4676;42.678;23.244;2023-08-06T12:44:26;92995.06;;;24.15;76.67
9277;BME280;4676;42.678;23.244;2023-08-06T12:46:53;92992.44;;;24.23;76.18
9277;BME280;4676;42.678;23.244;2023-08-06T12:49:20;92998.75;;;24.21;78.02
9277;BME280;4676;42.678;23.244;2023-08-06T12:51:47;92996.16;;;24.21;80.58
9277;BME280;4676;42.678;23.244;2023-08-06T12:54:14;92991.97;;;24.12;85.39
9277;BME280;4676;42.678;23.244;2023-08-06T12:56:41;92999.75;;;24.12;79.55
9277;BME280;4676;42.678;23.244;2023-08-06T12:59:09;92993.63;;;24.13;80.41
9277;BME280;4676;42.678;23.244;2023-08-06T13:01:37;92997.31;;;24.10;81.63
9277;BME280;4676;42.678;23.244;2023-08-06T13:04:04;92988.91;;;24.16;82.59